sensor_id;sensor_type;location;lat;lon;timestamp;P1;durP1;ratioP1;P2;durP2;ratioP2
23800;SDS011;12081;48.614;10.226;2023-04-06T00:02:32;12.77;;;8.90;;
23800;SDS011;12081;48.614;10.226;2023-04-06T00:05:16;15.33;;;8.83;;
23800;SDS011;12081;48.614;10.226;2023-04-06T00:08:00;12.57;;;8.73;;
23800;SDS011;12081;48.614;10.226;2023-04-06T00:10:44;15.93;;;9.07;;
23800;SDS011;12081;48.614;10.226;2023-04-06T00:13:28;16.47;;;9.00;;
23800;SDS011;12081;48.614;10.226;2023-04-06T00:16:12;14.63;;;8.83;;
23800;SDS011;12081;48.614;10.226;2023-04-06T00:18:56;14.20;;;9.00;;
23800;SDS011;12081;48.614;10.226;2023-04-06T00:21:40;11.93;;;8.50;;
23800;SDS011;12081;48.614;10.226;2023-04-06T00:24:24;13.00;;;8.77;;
23800;SDS011;12081;48.614;10.226;2023-04-06T00:27:08;14.63;;;8.73;;
23800;SDS011;12081;48.614;10.226;2023-04-06T00:29:53;15.13;;;7.83;;
23800;SDS011;12081;48.614;10.226;2023-04-06T00:32:37;14.27;;;7.80;;
23800;SDS011;12081;48.614;10.226;2023-04-06T00:35:21;13.03;;;8.13;;
23800;SDS011;12081;48.614;10.226;2023-04-06T00:38:05;16.83;;;7.77;;
23800;SDS011;12081;48.614;10.226;2023-04-06T00:40:49;14.80;;;8.57;;
23800;SDS011;12081;48.614;10.226;2023-04-06T00:43:34;10.90;;;7.60;;
23800;SDS011;12081;48.614;10.226;2023-04-06T00:46:18;12.80;;;7.93;;
23800;SDS011;12081;48.614;10.226;2023-04-06T00:49:02;14.93;;;7.70;;
23800;SDS011;12081;48.614;10.226;2023-04-06T00:51:46;12.23;;;7.97;;
23800;SDS011;12081;48.614;10.226;2023-04-06T00:54:30;12.37;;;7.60;;
23800;SDS011;12081;48.614;10.226;2023-04-06T00:57:14;15.27;;;7.87;;
23800;SDS011;12081;48.614;10.226;2023-04-06T00:59:58;11.97;;;8.30;;
23800;SDS011;12081;48.614;10.226;2023-04-06T01:02:42;12.63;;;7.93;;
23800;SDS011;12081;48.614;10.226;2023-04-06T01:05:28;14.07;;;8.47;;
23800;SDS011;12081;48.614;10.226;2023-04-06T01:08:12;11.63;;;8.03;;
23800;SDS011;12081;48.614;10.226;2023-04-06T01:10:58;12.60;;;8.73;;
23800;SDS011;12081;48.614;10.226;2023-04-06T01:13:44;13.97;;;8.33;;
23800;SDS011;12081;48.614;10.226;2023-04-06T01:16:28;11.53;;;8.03;;
23800;SDS011;12081;48.614;10.226;2023-04-06T01:19:12;12.27;;;7.87;;
23800;SDS011;12081;48.614;10.226;2023-04-06T01:21:57;14.37;;;8.37;;
23800;SDS011;12081;48.614;10.226;2023-04-06T01:24:41;11.27;;;8.40;;
23800;SDS011;12081;48.614;10.226;2023-04-06T01:27:25;13.00;;;8.97;;
23800;SDS011;12081;48.614;10.226;2023-04-06T01:30:11;12.20;;;7.73;;
23800;SDS011;12081;48.614;10.226;2023-04-06T01:32:55;14.10;;;8.27;;
23800;SDS011;12081;48.614;10.226;2023-04-06T01:35:40;12.70;;;8.60;;
23800;SDS011;12081;48.614;10.226;2023-04-06T01:38:23;10.77;;;7.73;;
23800;SDS011;12081;48.614;10.226;2023-04-06T01:41:08;11.80;;;8.30;;
23800;SDS011;12081;48.614;10.226;2023-04-06T01:43:52;13.20;;;8.47;;
23800;SDS011;12081;48.614;10.226;2023-04-06T01:46:38;14.33;;;8.63;;
23800;SDS011;12081;48.614;10.226;2023-04-06T01:49:22;13.70;;;8.57;;
23800;SDS011;12081;48.614;10.226;2023-04-06T01:52:06;12.70;;;8.33;;
23800;SDS011;12081;48.614;10.226;2023-04-06T01:54:51;11.50;;;8.07;;
23800;SDS011;12081;48.614;10.226;2023-04-06T01:57:36;12.80;;;8.33;;
23800;SDS011;12081;48.614;10.226;2023-04-06T02:00:20;13.37;;;8.93;;
23800;SDS011;12081;48.614;10.226;2023-04-06T02:03:04;14.67;;;8.50;;
23800;SDS011;12081;48.614;10.226;2023-04-06T02:05:48;13.63;;;8.13;;
23800;SDS011;12081;48.614;10.226;2023-04-06T02:08:32;11.60;;;8.67;;
23800;SDS011;12081;48.614;10.226;2023-04-06T02:11:16;14.33;;;8.80;;
23800;SDS011;12081;48.614;10.226;2023-04-06T02:14:00;12.77;;;8.47;;
23800;SDS011;12081;48.614;10.226;2023-04-06T02:16:44;12.80;;;8.93;;
23800;SDS011;12081;48.614;10.226;2023-04-06T02:19:28;13.80;;;9.13;;
23800;SDS011;12081;48.614;10.226;2023-04-06T02:22:12;14.00;;;8.77;;
23800;SDS011;12081;48.614;10.226;2023-04-06T02:24:56;13.57;;;8.87;;
23800;SDS011;12081;48.614;10.226;2023-04-06T02:27:40;12.77;;;9.70;;
23800;SDS011;12081;48.614;10.226;2023-04-06T02:30:24;15.57;;;9.63;;
23800;SDS011;12081;48.614;10.226;2023-04-06T02:33:09;14.83;;;9.23;;
23800;SDS011;12081;48.614;10.226;2023-04-06T02:35:53;12.07;;;8.17;;
23800;SDS011;12081;48.614;10.226;2023-04-06T02:38:37;12.77;;;8.13;;
23800;SDS011;12081;48.614;10.226;2023-04-06T02:41:21;12.13;;;8.07;;
23800;SDS011;12081;48.614;10.226;2023-04-06T02:44:08;13.40;;;8.50;;
23800;SDS011;12081;48.614;10.226;2023-04-06T02:46:53;10.53;;;7.63;;
23800;SDS011;12081;48.614;10.226;2023-04-06T02:49:37;12.03;;;8.10;;
23800;SDS011;12081;48.614;10.226;2023-04-06T02:52:21;11.53;;;8.23;;
23800;SDS011;12081;48.614;10.226;2023-04-06T02:55:05;13.17;;;8.17;;
23800;SDS011;12081;48.614;10.226;2023-04-06T02:57:51;15.73;;;8.57;;
23800;SDS011;12081;48.614;10.226;2023-04-06T03:01:21;10.57;;;8.33;;
23800;SDS011;12081;48.614;10.226;2023-04-06T03:08:53;13.20;;;8.20;;
23800;SDS011;12081;48.614;10.226;2023-04-06T03:16:01;12.50;;;8.20;;
23800;SDS011;12081;48.614;10.226;2023-04-06T03:25:39;12.07;;;8.30;;
23800;SDS011;12081;48.614;10.226;2023-04-06T03:28:50;12.60;;;7.97;;
23800;SDS011;12081;48.614;10.226;2023-04-06T03:31:41;11.30;;;8.07;;
23800;SDS011;12081;48.614;10.226;2023-04-06T03:34:26;13.53;;;8.37;;
23800;SDS011;12081;48.614;10.226;2023-04-06T03:37:15;16.57;;;9.30;;
23800;SDS011;12081;48.614;10.226;2023-04-06T03:39:59;11.40;;;7.63;;
23800;SDS011;12081;48.614;10.226;2023-04-06T03:42:48;13.03;;;8.43;;
23800;SDS011;12081;48.614;10.226;2023-04-06T03:45:35;11.97;;;7.63;;
23800;SDS011;12081;48.614;10.226;2023-04-06T03:48:27;12.20;;;8.40;;
23800;SDS011;12081;48.614;10.226;2023-04-06T03:51:11;12.00;;;8.00;;
23800;SDS011;12081;48.614;10.226;2023-04-06T03:53:55;16.00;;;8.27;;
23800;SDS011;12081;48.614;10.226;2023-04-06T03:56:39;13.67;;;8.03;;
23800;SDS011;12081;48.614;10.226;2023-04-06T03:59:23;16.90;;;9.67;;
23800;SDS011;12081;48.614;10.226;2023-04-06T04:02:13;10.37;;;7.70;;
23800;SDS011;12081;48.614;10.226;2023-04-06T04:04:58;12.93;;;8.90;;
23800;SDS011;12081;48.614;10.226;2023-04-06T04:07:47;15.60;;;8.60;;
23800;SDS011;12081;48.614;10.226;2023-04-06T04:10:31;13.83;;;9.20;;
23800;SDS011;12081;48.614;10.226;2023-04-06T04:13:15;13.20;;;8.90;;
23800;SDS011;12081;48.614;10.226;2023-04-06T04:15:59;15.67;;;9.17;;
23800;SDS011;12081;48.614;10.226;2023-04-06T04:18:53;17.93;;;9.23;;
23800;SDS011;12081;48.614;10.226;2023-04-06T04:21:43;18.83;;;10.20;;
23800;SDS011;12081;48.614;10.226;2023-04-06T04:24:33;20.87;;;11.40;;
23800;SDS011;12081;48.614;10.226;2023-04-06T04:27:37;24.43;;;11.60;;
23800;SDS011;12081;48.614;10.226;2023-04-06T04:31:10;17.97;;;9.63;;
23800;SDS011;12081;48.614;10.226;2023-04-06T04:34:34;20.83;;;9.83;;
23800;SDS011;12081;48.614;10.226;2023-04-06T04:37:40;20.53;;;10.00;;
23800;SDS011;12081;48.614;10.226;2023-04-06T04:41:02;14.43;;;9.67;;
23800;SDS011;12081;48.614;10.226;2023-04-06T04:43:46;15.63;;;10.07;;
23800;SDS011;12081;48.614;10.226;2023-04-06T04:46:31;14.77;;;10.10;;
23800;SDS011;12081;48.614;10.226;2023-04-06T04:49:15;19.10;;;11.53;;
23800;SDS011;12081;48.614;10.226;2023-04-06T04:51:59;13.23;;;9.40;;
23800;SDS011;12081;48.614;10.226;2023-04-06T04:54:43;13.70;;;9.70;;
23800;SDS011;12081;48.614;10.226;2023-04-06T04:57:27;14.80;;;9.50;;
23800;SDS011;12081;48.614;10.226;2023-04-06T05:00:11;13.00;;;9.37;;
23800;SDS011;12081;48.614;10.226;2023-04-06T05:02:56;11.43;;;8.90;;
23800;SDS011;12081;48.614;10.226;2023-04-06T05:05:40;14.73;;;10.53;;
23800;SDS011;12081;48.614;10.226;2023-04-06T05:31:21;17.77;;;10.70;;
23800;SDS011;12081;48.614;10.226;2023-04-06T05:34:05;28.90;;;15.30;;
23800;SDS011;12081;48.614;10.226;2023-04-06T05:36:49;20.93;;;13.13;;
23800;SDS011;12081;48.614;10.226;2023-04-06T05:39:33;17.90;;;12.43;;
23800;SDS011;12081;48.614;10.226;2023-04-06T05:42:17;17.97;;;11.50;;
23800;SDS011;12081;48.614;10.226;2023-04-06T05:45:01;20.90;;;12.17;;
23800;SDS011;12081;48.614;10.226;2023-04-06T05:47:45;16.30;;;11.80;;
23800;SDS011;12081;48.614;10.226;2023-04-06T05:50:29;14.93;;;10.83;;
23800;SDS011;12081;48.614;10.226;2023-04-06T05:53:13;19.20;;;11.43;;
23800;SDS011;12081;48.614;10.226;2023-04-06T05:55:57;17.93;;;10.90;;
23800;SDS011;12081;48.614;10.226;2023-04-06T05:58:44;12.63;;;9.93;;
23800;SDS011;12081;48.614;10.226;2023-04-06T06:01:28;13.90;;;9.40;;
23800;SDS011;12081;48.614;10.226;2023-04-06T06:04:13;13.87;;;8.93;;
23800;SDS011;12081;48.614;10.226;2023-04-06T06:06:57;16.00;;;7.60;;
23800;SDS011;12081;48.614;10.226;2023-04-06T06:09:41;12.73;;;8.33;;
23800;SDS011;12081;48.614;10.226;2023-04-06T06:12:25;14.40;;;8.03;;
23800;SDS011;12081;48.614;10.226;2023-04-06T06:15:09;10.90;;;7.97;;
23800;SDS011;12081;48.614;10.226;2023-04-06T06:17:53;12.00;;;8.23;;
23800;SDS011;12081;48.614;10.226;2023-04-06T06:20:37;13.10;;;8.00;;
23800;SDS011;12081;48.614;10.226;2023-04-06T06:23:21;12.83;;;8.17;;
23800;SDS011;12081;48.614;10.226;2023-04-06T06:26:05;13.50;;;7.90;;
23800;SDS011;12081;48.614;10.226;2023-04-06T06:28:49;10.97;;;7.70;;
23800;SDS011;12081;48.614;10.226;2023-04-06T06:31:33;10.87;;;8.07;;
23800;SDS011;12081;48.614;10.226;2023-04-06T06:34:17;10.27;;;7.60;;
23800;SDS011;12081;48.614;10.226;2023-04-06T06:37:01;8.60;;;7.57;;
23800;SDS011;12081;48.614;10.226;2023-04-06T06:39:46;12.63;;;8.67;;
23800;SDS011;12081;48.614;10.226;2023-04-06T06:42:30;13.57;;;8.93;;
23800;SDS011;12081;48.614;10.226;2023-04-06T06:45:14;10.97;;;9.03;;
23800;SDS011;12081;48.614;10.226;2023-04-06T06:47:59;9.03;;;8.13;;
23800;SDS011;12081;48.614;10.226;2023-04-06T06:50:43;9.53;;;8.17;;
23800;SDS011;12081;48.614;10.226;2023-04-06T06:53:27;12.20;;;8.47;;
23800;SDS011;12081;48.614;10.226;2023-04-06T06:56:12;11.03;;;8.73;;
23800;SDS011;12081;48.614;10.226;2023-04-06T06:58:56;12.60;;;8.57;;
23800;SDS011;12081;48.614;10.226;2023-04-06T07:01:40;9.20;;;8.20;;
23800;SDS011;12081;48.614;10.226;2023-04-06T07:04:24;12.40;;;8.67;;
23800;SDS011;12081;48.614;10.226;2023-04-06T07:07:08;8.37;;;7.57;;
23800;SDS011;12081;48.614;10.226;2023-04-06T07:09:52;10.40;;;8.67;;
23800;SDS011;12081;48.614;10.226;2023-04-06T07:12:36;8.33;;;7.47;;
23800;SDS011;12081;48.614;10.226;2023-04-06T07:15:20;9.70;;;8.80;;
23800;SDS011;12081;48.614;10.226;2023-04-06T07:18:05;11.83;;;8.30;;
23800;SDS011;12081;48.614;10.226;2023-04-06T07:20:49;10.43;;;7.90;;
23800;SDS011;12081;48.614;10.226;2023-04-06T07:23:33;8.53;;;7.70;;
23800;SDS011;12081;48.614;10.226;2023-04-06T07:26:17;9.05;;;8.07;;
23800;SDS011;12081;48.614;10.226;2023-04-06T07:29:01;9.17;;;8.27;;
23800;SDS011;12081;48.614;10.226;2023-04-06T07:31:45;8.25;;;7.45;;
23800;SDS011;12081;48.614;10.226;2023-04-06T07:34:29;9.52;;;8.65;;
23800;SDS011;12081;48.614;10.226;2023-04-06T07:37:14;8.80;;;7.90;;
23800;SDS011;12081;48.614;10.226;2023-04-06T07:39:58;8.68;;;7.88;;
23800;SDS011;12081;48.614;10.226;2023-04-06T07:42:42;8.98;;;7.85;;
23800;SDS011;12081;48.614;10.226;2023-04-06T07:45:26;8.85;;;7.95;;
23800;SDS011;12081;48.614;10.226;2023-04-06T07:48:09;8.77;;;7.88;;
23800;SDS011;12081;48.614;10.226;2023-04-06T07:51:00;8.70;;;7.90;;
23800;SDS011;12081;48.614;10.226;2023-04-06T07:53:45;8.65;;;7.75;;
23800;SDS011;12081;48.614;10.226;2023-04-06T07:56:29;11.82;;;8.88;;
23800;SDS011;12081;48.614;10.226;2023-04-06T07:59:13;9.40;;;8.32;;
23800;SDS011;12081;48.614;10.226;2023-04-06T08:01:57;9.68;;;8.68;;
23800;SDS011;12081;48.614;10.226;2023-04-06T08:04:42;10.07;;;8.20;;
23800;SDS011;12081;48.614;10.226;2023-04-06T08:07:26;9.65;;;8.65;;
23800;SDS011;12081;48.614;10.226;2023-04-06T08:10:10;9.68;;;8.77;;
23800;SDS011;12081;48.614;10.226;2023-04-06T08:12:54;10.23;;;8.25;;
23800;SDS011;12081;48.614;10.226;2023-04-06T08:15:38;9.07;;;8.18;;
23800;SDS011;12081;48.614;10.226;2023-04-06T08:18:22;9.70;;;8.50;;
23800;SDS011;12081;48.614;10.226;2023-04-06T08:21:06;9.77;;;8.90;;
23800;SDS011;12081;48.614;10.226;2023-04-06T08:23:50;10.52;;;8.80;;
23800;SDS011;12081;48.614;10.226;2023-04-06T08:26:34;9.40;;;8.30;;
23800;SDS011;12081;48.614;10.226;2023-04-06T08:29:18;10.15;;;8.75;;
23800;SDS011;12081;48.614;10.226;2023-04-06T08:32:02;10.90;;;8.73;;
23800;SDS011;12081;48.614;10.226;2023-04-06T08:34:48;10.13;;;8.63;;
23800;SDS011;12081;48.614;10.226;2023-04-06T08:37:33;9.60;;;8.43;;
23800;SDS011;12081;48.614;10.226;2023-04-06T08:40:17;9.68;;;8.77;;
23800;SDS011;12081;48.614;10.226;2023-04-06T08:43:01;9.93;;;9.00;;
23800;SDS011;12081;48.614;10.226;2023-04-06T08:45:52;13.35;;;9.98;;
23800;SDS011;12081;48.614;10.226;2023-04-06T08:48:36;11.68;;;9.90;;
23800;SDS011;12081;48.614;10.226;2023-04-06T08:51:22;10.65;;;9.38;;
23800;SDS011;12081;48.614;10.226;2023-04-06T08:54:09;10.25;;;9.00;;
23800;SDS011;12081;48.614;10.226;2023-04-06T08:56:53;14.82;;;10.55;;
23800;SDS011;12081;48.614;10.226;2023-04-06T08:59:40;12.23;;;9.88;;
23800;SDS011;12081;48.614;10.226;2023-04-06T09:02:24;10.20;;;9.20;;
23800;SDS011;12081;48.614;10.226;2023-04-06T09:05:09;12.00;;;10.30;;
23800;SDS011;12081;48.614;10.226;2023-04-06T09:07:53;10.40;;;9.20;;
23800;SDS011;12081;48.614;10.226;2023-04-06T09:10:41;12.43;;;9.25;;
23800;SDS011;12081;48.614;10.226;2023-04-06T09:13:25;11.35;;;9.52;;
23800;SDS011;12081;48.614;10.226;2023-04-06T09:16:09;10.55;;;9.13;;
23800;SDS011;12081;48.614;10.226;2023-04-06T09:18:54;10.98;;;9.65;;
23800;SDS011;12081;48.614;10.226;2023-04-06T09:21:38;12.55;;;9.88;;
23800;SDS011;12081;48.614;10.226;2023-04-06T09:24:23;15.02;;;10.80;;
23800;SDS011;12081;48.614;10.226;2023-04-06T09:27:09;12.32;;;9.93;;
23800;SDS011;12081;48.614;10.226;2023-04-06T09:30:01;13.02;;;10.23;;
23800;SDS011;12081;48.614;10.226;2023-04-06T09:32:57;11.50;;;8.90;;
23800;SDS011;12081;48.614;10.226;2023-04-06T09:35:49;11.43;;;10.25;;
23800;SDS011;12081;48.614;10.226;2023-04-06T09:38:33;12.70;;;9.27;;
23800;SDS011;12081;48.614;10.226;2023-04-06T09:41:30;12.57;;;9.75;;
23800;SDS011;12081;48.614;10.226;2023-04-06T09:44:16;10.40;;;9.13;;
23800;SDS011;12081;48.614;10.226;2023-04-06T09:47:00;12.25;;;9.77;;
23800;SDS011;12081;48.614;10.226;2023-04-06T09:49:47;12.02;;;10.05;;
23800;SDS011;12081;48.614;10.226;2023-04-06T09:52:37;11.18;;;9.30;;
23800;SDS011;12081;48.614;10.226;2023-04-06T09:55:30;12.90;;;9.27;;
23800;SDS011;12081;48.614;10.226;2023-04-06T09:58:18;12.20;;;9.27;;
23800;SDS011;12081;48.614;10.226;2023-04-06T10:01:10;9.70;;;8.70;;
23800;SDS011;12081;48.614;10.226;2023-04-06T10:06:53;10.15;;;9.18;;
23800;SDS011;12081;48.614;10.226;2023-04-06T10:09:39;10.50;;;8.57;;
23800;SDS011;12081;48.614;10.226;2023-04-06T10:12:24;10.05;;;9.02;;
23800;SDS011;12081;48.614;10.226;2023-04-06T10:15:08;9.45;;;8.50;;
23800;SDS011;12081;48.614;10.226;2023-04-06T10:17:54;8.55;;;7.45;;
23800;SDS011;12081;48.614;10.226;2023-04-06T10:20:39;9.32;;;8.35;;
23800;SDS011;12081;48.614;10.226;2023-04-06T10:23:41;9.73;;;8.43;;
23800;SDS011;12081;48.614;10.226;2023-04-06T10:26:30;9.88;;;8.57;;
23800;SDS011;12081;48.614;10.226;2023-04-06T10:29:14;9.30;;;8.35;;
23800;SDS011;12081;48.614;10.226;2023-04-06T10:31:58;10.77;;;9.48;;
23800;SDS011;12081;48.614;10.226;2023-04-06T10:34:43;10.98;;;8.93;;
23800;SDS011;12081;48.614;10.226;2023-04-06T10:37:27;10.27;;;9.27;;
23800;SDS011;12081;48.614;10.226;2023-04-06T10:40:24;10.97;;;9.60;;
23800;SDS011;12081;48.614;10.226;2023-04-06T10:43:13;12.20;;;8.63;;
23800;SDS011;12081;48.614;10.226;2023-04-06T10:46:02;10.00;;;8.80;;
23800;SDS011;12081;48.614;10.226;2023-04-06T10:48:47;9.17;;;8.27;;
23800;SDS011;12081;48.614;10.226;2023-04-06T10:51:37;10.63;;;8.93;;
23800;SDS011;12081;48.614;10.226;2023-04-06T10:54:22;11.73;;;9.03;;
23800;SDS011;12081;48.614;10.226;2023-04-06T10:57:09;9.53;;;8.53;;
23800;SDS011;12081;48.614;10.226;2023-04-06T10:59:53;11.03;;;9.50;;
23800;SDS011;12081;48.614;10.226;2023-04-06T11:02:37;10.30;;;9.27;;
23800;SDS011;12081;48.614;10.226;2023-04-06T11:05:21;12.60;;;9.40;;
23800;SDS011;12081;48.614;10.226;2023-04-06T11:08:05;10.53;;;9.27;;
23800;SDS011;12081;48.614;10.226;2023-04-06T11:10:50;11.83;;;9.53;;
23800;SDS011;12081;48.614;10.226;2023-04-06T11:13:41;10.73;;;9.43;;
23800;SDS011;12081;48.614;10.226;2023-04-06T11:16:27;11.00;;;9.07;;
23800;SDS011;12081;48.614;10.226;2023-04-06T11:19:14;13.23;;;9.80;;
23800;SDS011;12081;48.614;10.226;2023-04-06T11:22:05;11.00;;;9.07;;
23800;SDS011;12081;48.614;10.226;2023-04-06T11:24:51;10.23;;;8.70;;
23800;SDS011;12081;48.614;10.226;2023-04-06T11:27:36;10.40;;;9.30;;
23800;SDS011;12081;48.614;10.226;2023-04-06T11:30:21;11.27;;;9.60;;
23800;SDS011;12081;48.614;10.226;2023-04-06T11:33:05;9.87;;;8.83;;
23800;SDS011;12081;48.614;10.226;2023-04-06T11:35:49;10.07;;;9.07;;
23800;SDS011;12081;48.614;10.226;2023-04-06T11:38:34;11.00;;;8.23;;
23800;SDS011;12081;48.614;10.226;2023-04-06T11:41:23;9.80;;;8.87;;
23800;SDS011;12081;48.614;10.226;2023-04-06T11:44:09;10.90;;;8.77;;
23800;SDS011;12081;48.614;10.226;2023-04-06T11:46:53;11.63;;;8.43;;
23800;SDS011;12081;48.614;10.226;2023-04-06T11:49:39;9.20;;;8.30;;
23800;SDS011;12081;48.614;10.226;2023-04-06T11:52:26;10.23;;;9.13;;
23800;SDS011;12081;48.614;10.226;2023-04-06T11:55:13;10.33;;;8.57;;
23800;SDS011;12081;48.614;10.226;2023-04-06T11:57:59;11.03;;;8.97;;
23800;SDS011;12081;48.614;10.226;2023-04-06T12:00:43;9.57;;;8.67;;
23800;SDS011;12081;48.614;10.226;2023-04-06T12:03:31;15.13;;;8.77;;
23800;SDS011;12081;48.614;10.226;2023-04-06T12:06:14;9.73;;;8.73;;
23800;SDS011;12081;48.614;10.226;2023-04-06T12:08:59;11.40;;;8.47;;
23800;SDS011;12081;48.614;10.226;2023-04-06T12:11:43;11.20;;;8.57;;
23800;SDS011;12081;48.614;10.226;2023-04-06T12:14:27;9.50;;;8.60;;
23800;SDS011;12081;48.614;10.226;2023-04-06T12:17:11;9.50;;;8.60;;
23800;SDS011;12081;48.614;10.226;2023-04-06T12:19:55;9.20;;;8.30;;
23800;SDS011;12081;48.614;10.226;2023-04-06T12:22:39;10.50;;;8.98;;
23800;SDS011;12081;48.614;10.226;2023-04-06T12:25:23;11.50;;;9.10;;
23800;SDS011;12081;48.614;10.226;2023-04-06T12:28:07;10.50;;;8.88;;
23800;SDS011;12081;48.614;10.226;2023-04-06T12:30:52;9.93;;;8.90;;
23800;SDS011;12081;48.614;10.226;2023-04-06T12:33:37;9.60;;;8.73;;
23800;SDS011;12081;48.614;10.226;2023-04-06T12:36:21;11.00;;;9.20;;
23800;SDS011;12081;48.614;10.226;2023-04-06T12:39:05;10.48;;;9.45;;
23800;SDS011;12081;48.614;10.226;2023-04-06T12:41:49;10.70;;;9.60;;
23800;SDS011;12081;48.614;10.226;2023-04-06T12:44:33;9.98;;;8.80;;
23800;SDS011;12081;48.614;10.226;2023-04-06T12:47:17;10.00;;;8.63;;
23800;SDS011;12081;48.614;10.226;2023-04-06T12:50:02;9.43;;;8.50;;
23800;SDS011;12081;48.614;10.226;2023-04-06T12:52:46;10.70;;;9.02;;
23800;SDS011;12081;48.614;10.226;2023-04-06T12:55:31;8.87;;;8.03;;
23800;SDS011;12081;48.614;10.226;2023-04-06T12:58:17;8.97;;;8.07;;
23800;SDS011;12081;48.614;10.226;2023-04-06T13:01:05;8.33;;;7.57;;
23800;SDS011;12081;48.614;10.226;2023-04-06T13:03:50;11.57;;;8.13;;
23800;SDS011;12081;48.614;10.226;2023-04-06T13:06:35;11.70;;;8.97;;
23800;SDS011;12081;48.614;10.226;2023-04-06T13:09:19;10.20;;;9.20;;
23800;SDS011;12081;48.614;10.226;2023-04-06T13:12:02;9.37;;;8.47;;
23800;SDS011;12081;48.614;10.226;2023-04-06T13:14:47;11.67;;;9.33;;
23800;SDS011;12081;48.614;10.226;2023-04-06T13:17:34;9.27;;;8.30;;
23800;SDS011;12081;48.614;10.226;2023-04-06T13:20:18;9.27;;;8.27;;
23800;SDS011;12081;48.614;10.226;2023-04-06T13:23:02;9.47;;;8.53;;
23800;SDS011;12081;48.614;10.226;2023-04-06T13:25:47;12.77;;;10.70;;
23800;SDS011;12081;48.614;10.226;2023-04-06T13:28:31;11.00;;;9.07;;
23800;SDS011;12081;48.614;10.226;2023-04-06T13:31:16;11.10;;;8.53;;
23800;SDS011;12081;48.614;10.226;2023-04-06T13:34:00;10.40;;;8.63;;
23800;SDS011;12081;48.614;10.226;2023-04-06T13:36:45;11.87;;;8.53;;
23800;SDS011;12081;48.614;10.226;2023-04-06T13:39:29;11.20;;;8.27;;
23800;SDS011;12081;48.614;10.226;2023-04-06T13:42:13;10.10;;;9.13;;
23800;SDS011;12081;48.614;10.226;2023-04-06T13:44:58;9.00;;;7.70;;
23800;SDS011;12081;48.614;10.226;2023-04-06T13:47:43;8.43;;;7.63;;
23800;SDS011;12081;48.614;10.226;2023-04-06T13:50:27;10.67;;;7.47;;
23800;SDS011;12081;48.614;10.226;2023-04-06T13:53:11;8.80;;;7.93;;
23800;SDS011;12081;48.614;10.226;2023-04-06T13:55:55;8.57;;;7.67;;
23800;SDS011;12081;48.614;10.226;2023-04-06T13:58:40;10.17;;;8.13;;
23800;SDS011;12081;48.614;10.226;2023-04-06T14:01:23;9.27;;;8.20;;
23800;SDS011;12081;48.614;10.226;2023-04-06T14:04:09;8.33;;;7.53;;
23800;SDS011;12081;48.614;10.226;2023-04-06T14:06:54;10.90;;;8.13;;
23800;SDS011;12081;48.614;10.226;2023-04-06T14:09:38;9.23;;;7.83;;
23800;SDS011;12081;48.614;10.226;2023-04-06T14:12:23;9.03;;;8.00;;
23800;SDS011;12081;48.614;10.226;2023-04-06T14:15:07;8.53;;;7.43;;
23800;SDS011;12081;48.614;10.226;2023-04-06T14:17:52;12.77;;;8.40;;
23800;SDS011;12081;48.614;10.226;2023-04-06T14:20:36;8.90;;;7.83;;
23800;SDS011;12081;48.614;10.226;2023-04-06T14:23:20;9.53;;;8.40;;
23800;SDS011;12081;48.614;10.226;2023-04-06T14:26:06;9.70;;;8.70;;
23800;SDS011;12081;48.614;10.226;2023-04-06T14:28:51;9.60;;;7.87;;
23800;SDS011;12081;48.614;10.226;2023-04-06T14:31:36;9.03;;;8.03;;
23800;SDS011;12081;48.614;10.226;2023-04-06T14:34:20;9.10;;;8.20;;
23800;SDS011;12081;48.614;10.226;2023-04-06T14:37:04;8.07;;;7.10;;
23800;SDS011;12081;48.614;10.226;2023-04-06T14:39:49;10.10;;;7.57;;
23800;SDS011;12081;48.614;10.226;2023-04-06T14:42:33;8.50;;;7.70;;
23800;SDS011;12081;48.614;10.226;2023-04-06T14:45:19;7.90;;;7.10;;
23800;SDS011;12081;48.614;10.226;2023-04-06T14:48:05;8.23;;;7.40;;
23800;SDS011;12081;48.614;10.226;2023-04-06T14:50:53;10.20;;;7.83;;
23800;SDS011;12081;48.614;10.226;2023-04-06T14:53:38;9.27;;;7.70;;
23800;SDS011;12081;48.614;10.226;2023-04-06T14:56:23;9.77;;;7.63;;
23800;SDS011;12081;48.614;10.226;2023-04-06T14:59:08;8.93;;;8.03;;
23800;SDS011;12081;48.614;10.226;2023-04-06T15:01:52;8.73;;;7.53;;
23800;SDS011;12081;48.614;10.226;2023-04-06T15:04:38;9.83;;;7.63;;
23800;SDS011;12081;48.614;10.226;2023-04-06T15:07:23;8.40;;;7.43;;
23800;SDS011;12081;48.614;10.226;2023-04-06T15:10:08;8.87;;;7.50;;
23800;SDS011;12081;48.614;10.226;2023-04-06T15:12:53;9.40;;;7.83;;
23800;SDS011;12081;48.614;10.226;2023-04-06T15:15:37;8.33;;;7.47;;
23800;SDS011;12081;48.614;10.226;2023-04-06T15:18:22;8.67;;;7.53;;
23800;SDS011;12081;48.614;10.226;2023-04-06T15:21:06;9.83;;;7.20;;
23800;SDS011;12081;48.614;10.226;2023-04-06T15:23:50;10.67;;;7.20;;
23800;SDS011;12081;48.614;10.226;2023-04-06T15:26:36;9.47;;;8.10;;
23800;SDS011;12081;48.614;10.226;2023-04-06T15:29:20;8.03;;;7.07;;
23800;SDS011;12081;48.614;10.226;2023-04-06T15:32:04;8.30;;;7.10;;
23800;SDS011;12081;48.614;10.226;2023-04-06T15:34:48;10.10;;;7.57;;
23800;SDS011;12081;48.614;10.226;2023-04-06T15:37:32;9.10;;;7.27;;
23800;SDS011;12081;48.614;10.226;2023-04-06T15:40:16;8.17;;;7.13;;
23800;SDS011;12081;48.614;10.226;2023-04-06T15:43:01;8.43;;;7.30;;
23800;SDS011;12081;48.614;10.226;2023-04-06T15:45:44;7.67;;;6.87;;
23800;SDS011;12081;48.614;10.226;2023-04-06T15:48:30;11.77;;;7.83;;
23800;SDS011;12081;48.614;10.226;2023-04-06T15:51:14;7.90;;;7.10;;
23800;SDS011;12081;48.614;10.226;2023-04-06T15:54:00;8.43;;;7.10;;
23800;SDS011;12081;48.614;10.226;2023-04-06T15:56:44;7.70;;;6.67;;
23800;SDS011;12081;48.614;10.226;2023-04-06T15:59:28;8.67;;;7.40;;
23800;SDS011;12081;48.614;10.226;2023-04-06T16:02:12;8.67;;;7.40;;
23800;SDS011;12081;48.614;10.226;2023-04-06T16:04:57;8.00;;;7.20;;
23800;SDS011;12081;48.614;10.226;2023-04-06T16:07:44;8.23;;;7.40;;
23800;SDS011;12081;48.614;10.226;2023-04-06T16:10:28;8.97;;;7.30;;
23800;SDS011;12081;48.614;10.226;2023-04-06T16:13:13;8.50;;;7.60;;
23800;SDS011;12081;48.614;10.226;2023-04-06T16:15:57;8.53;;;7.63;;
23800;SDS011;12081;48.614;10.226;2023-04-06T16:18:41;10.53;;;6.80;;
23800;SDS011;12081;48.614;10.226;2023-04-06T16:21:25;8.37;;;7.27;;
23800;SDS011;12081;48.614;10.226;2023-04-06T16:24:11;10.03;;;7.90;;
23800;SDS011;12081;48.614;10.226;2023-04-06T16:26:56;8.63;;;7.37;;
23800;SDS011;12081;48.614;10.226;2023-04-06T16:29:41;8.40;;;6.63;;
23800;SDS011;12081;48.614;10.226;2023-04-06T16:32:25;9.90;;;6.67;;
23800;SDS011;12081;48.614;10.226;2023-04-06T16:35:10;7.53;;;6.63;;
23800;SDS011;12081;48.614;10.226;2023-04-06T16:37:53;9.47;;;7.33;;
23800;SDS011;12081;48.614;10.226;2023-04-06T16:40:37;8.03;;;7.20;;
23800;SDS011;12081;48.614;10.226;2023-04-06T16:43:22;7.30;;;6.60;;
23800;SDS011;12081;48.614;10.226;2023-04-06T16:46:06;10.20;;;7.10;;
23800;SDS011;12081;48.614;10.226;2023-04-06T16:48:50;6.97;;;6.27;;
23800;SDS011;12081;48.614;10.226;2023-04-06T16:51:34;8.43;;;7.03;;
23800;SDS011;12081;48.614;10.226;2023-04-06T16:54:19;8.00;;;7.20;;
23800;SDS011;12081;48.614;10.226;2023-04-06T16:57:03;9.20;;;6.37;;